sensor_id;sensor_type;location;lat;lon;timestamp;pressure;altitude;pressure_sealevel;temperature;humidity
67029;BME280;53934;52.142;11.738;2022-08-14T00:00:29;100951.97;;;24.12;64.50
67029;BME280;53934;52.142;11.738;2022-08-14T00:02:56;100950.69;;;24.16;64.42
67029;BME280;53934;52.142;11.738;2022-08-14T00:05:22;100960.22;;;24.19;64.24
67029;BME280;53934;52.142;11.738;2022-08-14T00:07:49;100949.22;;;23.96;65.55
67029;BME280;53934;52.142;11.738;2022-08-14T00:10:20;100946.34;;;23.90;66.07
67029;BME280;53934;52.142;11.738;2022-08-14T00:12:49;100958.78;;;23.73;66.91
67029;BME280;53934;52.142;11.738;2022-08-14T00:15:19;100950.56;;;23.66;67.14
67029;BME280;53934;52.142;11.738;2022-08-14T00:17:48;100945.53;;;23.63;67.62
67029;BME280;53934;52.142;11.738;2022-08-14T00:20:17;100946.69;;;23.61;67.46
67029;BME280;53934;52.142;11.738;2022-08-14T00:22:44;100953.06;;;23.24;68.62
67029;BME280;53934;52.142;11.738;2022-08-14T00:25:10;100946.16;;;23.57;67.27
67029;BME280;53934;52.142;11.738;2022-08-14T00:27:37;100938.31;;;23.38;68.21
67029;BME280;53934;52.142;11.738;2022-08-14T00:30:06;100946.72;;;23.25;68.98
67029;BME280;53934;52.142;11.738;2022-08-14T00:32:33;100948.81;;;23.14;69.31
67029;BME280;53934;52.142;11.738;2022-08-14T00:35:02;100940.81;;;23.40;68.43
67029;BME280;53934;52.142;11.738;2022-08-14T00:37:30;100946.44;;;23.54;67.67
67029;BME280;53934;52.142;11.738;2022-08-14T00:39:56;100944.41;;;23.05;69.00
67029;BME280;53934;52.142;11.738;2022-08-14T00:42:23;100949.16;;;22.93;69.05
67029;BME280;53934;52.142;11.738;2022-08-14T00:44:49;100941.88;;;23.03;68.79
67029;BME280;53934;52.142;11.738;2022-08-14T00:47:17;100939.09;;;23.31;67.64
67029;BME280;53934;52.142;11.738;2022-08-14T00:49:44;100945.09;;;23.33;67.54
67029;BME280;53934;52.142;11.738;2022-08-14T00:52:13;100944.16;;;23.16;67.68
67029;BME280;53934;52.142;11.738;2022-08-14T00:54:41;100937.13;;;23.15;67.55
67029;BME280;53934;52.142;11.738;2022-08-14T00:57:07;100937.41;;;23.29;67.24
67029;BME280;53934;52.142;11.738;2022-08-14T00:59:34;100941.69;;;23.22;67.21
67029;BME280;53934;52.142;11.738;2022-08-14T01:02:02;100941.34;;;23.00;67.66
67029;BME280;53934;52.142;11.738;2022-08-14T01:04:32;100932.41;;;22.73;69.13
67029;BME280;53934;52.142;11.738;2022-08-14T01:07:00;100937.06;;;23.07;67.93
67029;BME280;53934;52.142;11.738;2022-08-14T01:09:29;100939.22;;;22.86;68.46
67029;BME280;53934;52.142;11.738;2022-08-14T01:11:55;100935.88;;;22.39;70.22
67029;BME280;53934;52.142;11.738;2022-08-14T01:16:48;100940.88;;;22.24;71.73
67029;BME280;53934;52.142;11.738;2022-08-14T01:19:15;100942.84;;;22.49;70.89
67029;BME280;53934;52.142;11.738;2022-08-14T01:22:00;100941.00;;;22.50;70.42
67029;BME280;53934;52.142;11.738;2022-08-14T01:24:27;100931.16;;;22.05;72.26
67029;BME280;53934;52.142;11.738;2022-08-14T01:26:53;100932.41;;;22.28;71.09
67029;BME280;53934;52.142;11.738;2022-08-14T01:29:19;100931.69;;;22.54;70.11
67029;BME280;53934;52.142;11.738;2022-08-14T01:31:46;100934.81;;;22.67;69.55
67029;BME280;53934;52.142;11.738;2022-08-14T01:34:12;100931.97;;;22.51;70.59
67029;BME280;53934;52.142;11.738;2022-08-14T01:36:39;100934.81;;;22.67;69.83
67029;BME280;53934;52.142;11.738;2022-08-14T01:39:09;100930.22;;;22.87;68.82
67029;BME280;53934;52.142;11.738;2022-08-14T01:41:36;100932.47;;;22.99;68.53
67029;BME280;53934;52.142;11.738;2022-08-14T01:44:05;100929.94;;;22.80;69.53
67029;BME280;53934;52.142;11.738;2022-08-14T01:46:35;100924.75;;;22.61;70.67
67029;BME280;53934;52.142;11.738;2022-08-14T01:49:04;100930.25;;;22.59;70.95
67029;BME280;53934;52.142;11.738;2022-08-14T01:51:31;100935.69;;;22.67;70.30
67029;BME280;53934;52.142;11.738;2022-08-14T01:54:02;100924.13;;;22.67;69.83
67029;BME280;53934;52.142;11.738;2022-08-14T01:56:33;100916.34;;;22.56;70.35
67029;BME280;53934;52.142;11.738;2022-08-14T01:59:02;100926.63;;;22.51;70.63
67029;BME280;53934;52.142;11.738;2022-08-14T02:01:29;100922.22;;;22.42;70.47
67029;BME280;53934;52.142;11.738;2022-08-14T02:03:56;100919.72;;;22.58;69.82
67029;BME280;53934;52.142;11.738;2022-08-14T02:06:23;100913.22;;;22.43;70.00
67029;BME280;53934;52.142;11.738;2022-08-14T02:08:51;100920.53;;;22.41;70.38
67029;BME280;53934;52.142;11.738;2022-08-14T02:11:17;100911.22;;;22.45;70.22
67029;BME280;53934;52.142;11.738;2022-08-14T02:13:51;100914.97;;;22.52;69.59
67029;BME280;53934;52.142;11.738;2022-08-14T02:16:20;100915.88;;;22.43;69.74
67029;BME280;53934;52.142;11.738;2022-08-14T02:18:50;100917.50;;;22.53;69.68
67029;BME280;53934;52.142;11.738;2022-08-14T02:21:16;100919.66;;;22.22;71.08
67029;BME280;53934;52.142;11.738;2022-08-14T02:23:44;100907.16;;;22.23;70.87
67029;BME280;53934;52.142;11.738;2022-08-14T02:26:16;100912.78;;;22.20;70.93
67029;BME280;53934;52.142;11.738;2022-08-14T02:28:43;100909.81;;;22.23;70.35
67029;BME280;53934;52.142;11.738;2022-08-14T02:31:12;100902.47;;;22.25;70.56
67029;BME280;53934;52.142;11.738;2022-08-14T02:33:39;100896.13;;;22.08;71.16
67029;BME280;53934;52.142;11.738;2022-08-14T02:36:10;100890.81;;;22.26;70.21
67029;BME280;53934;52.142;11.738;2022-08-14T02:38:37;100896.16;;;22.26;70.36
67029;BME280;53934;52.142;11.738;2022-08-14T02:41:08;100894.94;;;22.20;70.26
67029;BME280;53934;52.142;11.738;2022-08-14T02:43:35;100896.91;;;22.18;70.14
67029;BME280;53934;52.142;11.738;2022-08-14T02:46:04;100900.81;;;22.24;70.22
67029;BME280;53934;52.142;11.738;2022-08-14T02:48:35;100897.41;;;22.31;70.13
67029;BME280;53934;52.142;11.738;2022-08-14T02:51:05;100895.25;;;22.35;70.46
67029;BME280;53934;52.142;11.738;2022-08-14T02:53:32;100891.84;;;22.43;69.83
67029;BME280;53934;52.142;11.738;2022-08-14T02:56:00;100891.44;;;22.38;70.05
67029;BME280;53934;52.142;11.738;2022-08-14T02:58:26;100897.53;;;22.48;69.82
67029;BME280;53934;52.142;11.738;2022-08-14T03:00:53;100897.94;;;22.35;70.66
67029;BME280;53934;52.142;11.738;2022-08-14T03:03:20;100887.47;;;22.42;70.61
67029;BME280;53934;52.142;11.738;2022-08-14T03:05:50;100885.78;;;22.41;70.61
67029;BME280;53934;52.142;11.738;2022-08-14T03:08:17;100888.38;;;22.32;70.95
67029;BME280;53934;52.142;11.738;2022-08-14T03:10:44;100885.31;;;22.27;70.55
67029;BME280;53934;52.142;11.738;2022-08-14T03:13:11;100884.00;;;22.14;70.82
67029;BME280;53934;52.142;11.738;2022-08-14T03:15:37;100874.91;;;22.07;70.71
67029;BME280;53934;52.142;11.738;2022-08-14T03:18:09;100880.66;;;21.75;71.44
67029;BME280;53934;52.142;11.738;2022-08-14T03:20:35;100877.50;;;21.89;70.94
67029;BME280;53934;52.142;11.738;2022-08-14T03:23:03;100874.25;;;21.95;70.50
67029;BME280;53934;52.142;11.738;2022-08-14T03:25:29;100873.72;;;21.92;70.36
67029;BME280;53934;52.142;11.738;2022-08-14T03:27:58;100873.63;;;21.83;70.46
67029;BME280;53934;52.142;11.738;2022-08-14T03:30:28;100872.06;;;21.81;70.92
67029;BME280;53934;52.142;11.738;2022-08-14T03:32:55;100873.28;;;21.59;71.79
67029;BME280;53934;52.142;11.738;2022-08-14T03:35:22;100864.06;;;21.54;71.57
67029;BME280;53934;52.142;11.738;2022-08-14T03:37:49;100866.56;;;21.55;71.39
67029;BME280;53934;52.142;11.738;2022-08-14T03:40:18;100866.06;;;21.32;72.32
67029;BME280;53934;52.142;11.738;2022-08-14T03:42:44;100862.22;;;20.98;74.33
67029;BME280;53934;52.142;11.738;2022-08-14T03:45:11;100866.81;;;21.15;74.16
67029;BME280;53934;52.142;11.738;2022-08-14T03:47:38;100861.81;;;20.74;75.12
67029;BME280;53934;52.142;11.738;2022-08-14T03:50:05;100863.81;;;20.03;78.96
67029;BME280;53934;52.142;11.738;2022-08-14T03:52:35;100858.81;;;20.19;79.04
67029;BME280;53934;52.142;11.738;2022-08-14T03:55:02;100853.47;;;20.19;79.74
67029;BME280;53934;52.142;11.738;2022-08-14T03:57:32;100854.38;;;20.68;77.78
67029;BME280;53934;52.142;11.738;2022-08-14T04:00:00;100852.22;;;21.00;76.31
67029;BME280;53934;52.142;11.738;2022-08-14T04:02:31;100850.38;;;21.10;75.27
67029;BME280;53934;52.142;11.738;2022-08-14T04:04:57;100853.22;;;20.99;75.60
67029;BME280;53934;52.142;11.738;2022-08-14T04:07:24;100863.22;;;20.68;76.43
67029;BME280;53934;52.142;11.738;2022-08-14T04:09:50;100869.63;;;20.27;79.63
67029;BME280;53934;52.142;11.738;2022-08-14T04:12:16;100868.66;;;20.48;80.25
67029;BME280;53934;52.142;11.738;2022-08-14T04:14:45;100871.44;;;21.04;77.61
67029;BME280;53934;52.142;11.738;2022-08-14T04:17:11;100860.22;;;21.10;77.69
67029;BME280;53934;52.142;11.738;2022-08-14T04:19:38;100858.53;;;21.28;76.64
67029;BME280;53934;52.142;11.738;2022-08-14T04:22:04;100854.78;;;21.48;75.88
67029;BME280;53934;52.142;11.738;2022-08-14T04:24:32;100858.41;;;21.57;75.40
67029;BME280;53934;52.142;11.738;2022-08-14T04:26:58;100853.66;;;21.51;75.95
67029;BME280;53934;52.142;11.738;2022-08-14T04:29:24;100845.28;;;21.36;76.25
67029;BME280;53934;52.142;11.738;2022-08-14T04:31:52;100838.94;;;21.47;76.14
67029;BME280;53934;52.142;11.738;2022-08-14T04:34:18;100845.06;;;21.57;75.74
67029;BME280;53934;52.142;11.738;2022-08-14T04:36:45;100835.06;;;21.68;75.46
67029;BME280;53934;52.142;11.738;2022-08-14T04:39:29;100837.00;;;21.66;74.99
67029;BME280;53934;52.142;11.738;2022-08-14T04:42:13;100839.25;;;21.71;74.87
67029;BME280;53934;52.142;11.738;2022-08-14T04:44:57;100837.00;;;21.66;74.82
67029;BME280;53934;52.142;11.738;2022-08-14T04:47:25;100839.91;;;21.73;74.87
67029;BME280;53934;52.142;11.738;2022-08-14T04:50:09;100835.28;;;21.75;74.58
67029;BME280;53934;52.142;11.738;2022-08-14T04:52:35;100840.97;;;21.90;74.43
67029;BME280;53934;52.142;11.738;2022-08-14T04:55:02;100838.03;;;21.93;74.27
67029;BME280;53934;52.142;11.738;2022-08-14T04:57:29;100836.00;;;22.04;73.42
67029;BME280;53934;52.142;11.738;2022-08-14T04:59:55;100838.34;;;22.07;73.57
67029;BME280;53934;52.142;11.738;2022-08-14T05:02:21;100827.91;;;22.14;73.61
67029;BME280;53934;52.142;11.738;2022-08-14T05:04:52;100832.56;;;22.12;73.30
67029;BME280;53934;52.142;11.738;2022-08-14T05:07:19;100827.69;;;22.07;73.86
67029;BME280;53934;52.142;11.738;2022-08-14T05:09:45;100832.44;;;22.13;73.28
67029;BME280;53934;52.142;11.738;2022-08-14T05:12:11;100833.72;;;22.09;73.79
67029;BME280;53934;52.142;11.738;2022-08-14T05:14:38;100829.19;;;22.10;73.50
67029;BME280;53934;52.142;11.738;2022-08-14T05:17:05;100824.84;;;21.91;74.44
67029;BME280;53934;52.142;11.738;2022-08-14T05:19:31;100820.72;;;21.97;74.69
67029;BME280;53934;52.142;11.738;2022-08-14T05:21:59;100815.53;;;21.95;74.27
67029;BME280;53934;52.142;11.738;2022-08-14T05:24:26;100819.97;;;22.04;73.99
67029;BME280;53934;52.142;11.738;2022-08-14T05:26:52;100820.72;;;21.97;74.61
67029;BME280;53934;52.142;11.738;2022-08-14T05:29:19;100819.34;;;22.10;74.61
67029;BME280;53934;52.142;11.738;2022-08-14T05:31:45;100808.75;;;22.18;74.61
67029;BME280;53934;52.142;11.738;2022-08-14T05:34:11;100803.81;;;22.23;74.31
67029;BME280;53934;52.142;11.738;2022-08-14T05:36:38;100815.56;;;22.30;73.65
67029;BME280;53934;52.142;11.738;2022-08-14T05:39:06;100808.38;;;22.49;73.31
67029;BME280;53934;52.142;11.738;2022-08-14T05:41:32;100814.50;;;22.41;73.90
67029;BME280;53934;52.142;11.738;2022-08-14T05:43:59;100809.38;;;22.48;73.34
67029;BME280;53934;52.142;11.738;2022-08-14T05:46:26;100802.38;;;22.47;72.77
67029;BME280;53934;52.142;11.738;2022-08-14T05:48:54;100799.63;;;22.39;73.74
67029;BME280;53934;52.142;11.738;2022-08-14T05:51:22;100800.16;;;22.42;74.52
67029;BME280;53934;52.142;11.738;2022-08-14T05:53:48;100794.16;;;22.66;73.25
67029;BME280;53934;52.142;11.738;2022-08-14T05:56:16;100798.69;;;22.91;72.09
67029;BME280;53934;52.142;11.738;2022-08-14T05:58:44;100795.56;;;22.96;71.98
67029;BME280;53934;52.142;11.738;2022-08-14T06:01:10;100791.63;;;23.08;71.59
67029;BME280;53934;52.142;11.738;2022-08-14T06:03:36;100795.53;;;23.21;71.06
67029;BME280;53934;52.142;11.738;2022-08-14T06:06:03;100792.91;;;23.29;71.04
67029;BME280;53934;52.142;11.738;2022-08-14T06:08:31;100789.59;;;23.36;70.38
67029;BME280;53934;52.142;11.738;2022-08-14T06:11:01;100790.94;;;23.32;70.98
67029;BME280;53934;52.142;11.738;2022-08-14T06:13:30;100784.31;;;23.44;70.44
67029;BME280;53934;52.142;11.738;2022-08-14T06:15:57;100786.84;;;23.45;70.88
67029;BME280;53934;52.142;11.738;2022-08-14T06:18:24;100777.06;;;23.36;71.77
67029;BME280;53934;52.142;11.738;2022-08-14T06:20:51;100774.69;;;23.67;70.38
67029;BME280;53934;52.142;11.738;2022-08-14T06:23:18;100772.22;;;23.73;70.08
67029;BME280;53934;52.142;11.738;2022-08-14T06:25:45;100774.56;;;23.68;70.73
67029;BME280;53934;52.142;11.738;2022-08-14T06:28:15;100768.50;;;23.66;70.86
67029;BME280;53934;52.142;11.738;2022-08-14T06:30:43;100762.72;;;23.87;70.86
67029;BME280;53934;52.142;11.738;2022-08-14T06:33:09;100764.06;;;23.99;70.50
67029;BME280;53934;52.142;11.738;2022-08-14T06:35:36;100760.75;;;24.05;71.01
67029;BME280;53934;52.142;11.738;2022-08-14T06:38:03;100764.41;;;24.04;70.24
67029;BME280;53934;52.142;11.738;2022-08-14T06:40:31;100770.84;;;24.28;70.30
67029;BME280;53934;52.142;11.738;2022-08-14T06:43:00;100762.41;;;24.06;70.08
67029;BME280;53934;52.142;11.738;2022-08-14T06:45:27;100768.84;;;24.38;69.19
67029;BME280;53934;52.142;11.738;2022-08-14T06:47:56;100763.78;;;24.59;69.37
67029;BME280;53934;52.142;11.738;2022-08-14T06:50:23;100775.38;;;24.27;69.69
67029;BME280;53934;52.142;11.738;2022-08-14T06:52:51;100774.16;;;24.13;68.91
67029;BME280;53934;52.142;11.738;2022-08-14T06:55:18;100770.81;;;24.36;68.91
67029;BME280;53934;52.142;11.738;2022-08-14T06:57:47;100770.63;;;24.78;67.03
67029;BME280;53934;52.142;11.738;2022-08-14T07:00:17;100771.81;;;24.43;67.39
67029;BME280;53934;52.142;11.738;2022-08-14T07:02:44;100773.00;;;24.32;68.31
67029;BME280;53934;52.142;11.738;2022-08-14T07:05:29;100764.13;;;24.72;66.95
67029;BME280;53934;52.142;11.738;2022-08-14T07:08:12;100761.75;;;24.93;65.44
67029;BME280;53934;52.142;11.738;2022-08-14T07:10:40;100754.50;;;25.10;66.12
67029;BME280;53934;52.142;11.738;2022-08-14T07:13:17;100757.38;;;25.47;64.44
67029;BME280;53934;52.142;11.738;2022-08-14T07:15:44;100758.06;;;25.49;63.47
67029;BME280;53934;52.142;11.738;2022-08-14T07:18:11;100766.16;;;25.72;63.76
67029;BME280;53934;52.142;11.738;2022-08-14T07:20:40;100750.44;;;26.14;63.92
67029;BME280;53934;52.142;11.738;2022-08-14T07:23:08;100751.44;;;26.59;60.77
67029;BME280;53934;52.142;11.738;2022-08-14T07:25:36;100758.84;;;27.24;62.21
67029;BME280;53934;52.142;11.738;2022-08-14T07:28:08;100752.56;;;26.79;60.73
67029;BME280;53934;52.142;11.738;2022-08-14T07:30:34;100758.38;;;27.20;60.43
67029;BME280;53934;52.142;11.738;2022-08-14T07:33:01;100751.66;;;28.11;56.54
67029;BME280;53934;52.142;11.738;2022-08-14T07:35:28;100751.00;;;28.30;55.50
67029;BME280;53934;52.142;11.738;2022-08-14T07:37:56;100764.22;;;29.01;54.60
67029;BME280;53934;52.142;11.738;2022-08-14T07:40:22;100764.78;;;29.66;51.43
67029;BME280;53934;52.142;11.738;2022-08-14T07:42:49;100761.66;;;29.62;51.19
67029;BME280;53934;52.142;11.738;2022-08-14T07:45:15;100762.69;;;30.35;51.43
67029;BME280;53934;52.142;11.738;2022-08-14T07:47:42;100764.16;;;30.83;48.55
67029;BME280;53934;52.142;11.738;2022-08-14T07:50:11;100754.97;;;31.11;47.37
67029;BME280;53934;52.142;11.738;2022-08-14T07:52:39;100752.31;;;30.58;47.44
67029;BME280;53934;52.142;11.738;2022-08-14T07:55:09;100746.09;;;31.48;50.21
67029;BME280;53934;52.142;11.738;2022-08-14T07:57:37;100750.31;;;31.31;45.38
67029;BME280;53934;52.142;11.738;2022-08-14T08:00:07;100742.41;;;31.29;45.40
67029;BME280;53934;52.142;11.738;2022-08-14T08:02:38;100743.19;;;31.43;43.86
67029;BME280;53934;52.142;11.738;2022-08-14T08:05:05;100738.31;;;30.87;45.17
67029;BME280;53934;52.142;11.738;2022-08-14T08:07:32;100741.25;;;30.79;46.51
67029;BME280;53934;52.142;11.738;2022-08-14T08:10:04;100749.34;;;30.86;45.64
67029;BME280;53934;52.142;11.738;2022-08-14T08:12:53;100753.09;;;30.13;48.02
67029;BME280;53934;52.142;11.738;2022-08-14T08:15:20;100749.69;;;29.84;50.13
67029;BME280;53934;52.142;11.738;2022-08-14T08:17:46;100744.13;;;29.92;48.86
67029;BME280;53934;52.142;11.738;2022-08-14T08:20:17;100744.63;;;30.49;47.96
67029;BME280;53934;52.142;11.738;2022-08-14T08:22:44;100744.78;;;30.86;45.68
67029;BME280;53934;52.142;11.738;2022-08-14T08:25:11;100738.16;;;30.50;46.17
67029;BME280;53934;52.142;11.738;2022-08-14T08:27:38;100737.00;;;29.78;47.92
67029;BME280;53934;52.142;11.738;2022-08-14T08:30:08;100737.88;;;29.92;47.94
67029;BME280;53934;52.142;11.738;2022-08-14T08:32:40;100737.69;;;30.20;47.49
67029;BME280;53934;52.142;11.738;2022-08-14T08:35:09;100743.75;;;30.35;47.48
67029;BME280;53934;52.142;11.738;2022-08-14T08:37:41;100736.47;;;30.42;45.14
67029;BME280;53934;52.142;11.738;2022-08-14T08:40:08;100747.47;;;30.86;43.86
67029;BME280;53934;52.142;11.738;2022-08-14T08:42:35;100743.13;;;30.85;43.89
67029;BME280;53934;52.142;11.738;2022-08-14T08:45:02;100745.81;;;30.07;45.61
67029;BME280;53934;52.142;11.738;2022-08-14T08:47:38;100738.97;;;29.50;46.82
67029;BME280;53934;52.142;11.738;2022-08-14T08:50:18;100731.13;;;28.86;48.93
67029;BME280;53934;52.142;11.738;2022-08-14T08:52:47;100724.22;;;29.12;50.26
67029;BME280;53934;52.142;11.738;2022-08-14T08:55:14;100720.84;;;30.18;47.39
67029;BME280;53934;52.142;11.738;2022-08-14T08:57:40;100717.53;;;30.81;45.33
67029;BME280;53934;52.142;11.738;2022-08-14T09:00:14;100719.25;;;31.27;43.28
67029;BME280;53934;52.142;11.738;2022-08-14T09:02:53;100711.63;;;32.00;41.21
67029;BME280;53934;52.142;11.738;2022-08-14T09:05:22;100713.66;;;32.11;40.62
67029;BME280;53934;52.142;11.738;2022-08-14T09:07:48;100710.25;;;32.15;40.16
67029;BME280;53934;52.142;11.738;2022-08-14T09:10:14;100703.00;;;32.59;38.04
67029;BME280;53934;52.142;11.738;2022-08-14T09:12:41;100696.88;;;32.70;37.97
67029;BME280;53934;52.142;11.738;2022-08-14T09:15:09;100702.81;;;32.60;39.11
67029;BME280;53934;52.142;11.738;2022-08-14T09:17:35;100702.59;;;32.62;39.40
67029;BME280;53934;52.142;11.738;2022-08-14T09:20:04;100698.47;;;32.77;39.55
67029;BME280;53934;52.142;11.738;2022-08-14T09:22:31;100695.50;;;32.36;40.83
67029;BME280;53934;52.142;11.738;2022-08-14T09:24:58;100706.22;;;32.74;37.51
67029;BME280;53934;52.142;11.738;2022-08-14T09:27:24;100700.28;;;32.84;38.92
67029;BME280;53934;52.142;11.738;2022-08-14T09:29:50;100701.69;;;32.68;38.44
67029;BME280;53934;52.142;11.738;2022-08-14T09:32:22;100681.72;;;32.99;37.48
67029;BME280;53934;52.142;11.738;2022-08-14T09:34:57;100677.50;;;33.21;38.65
67029;BME280;53934;52.142;11.738;2022-08-14T09:37:39;100689.06;;;34.06;36.78
67029;BME280;53934;52.142;11.738;2022-08-14T09:40:15;100689.25;;;33.81;35.51
67029;BME280;53934;52.142;11.738;2022-08-14T09:42:51;100673.84;;;33.09;36.93
67029;BME280;53934;52.142;11.738;2022-08-14T09:45:29;100676.47;;;33.22;37.49
67029;BME280;53934;52.142;11.738;2022-08-14T09:47:57;100669.78;;;33.96;34.67
67029;BME280;53934;52.142;11.738;2022-08-14T09:50:26;100667.38;;;33.28;35.98
67029;BME280;53934;52.142;11.738;2022-08-14T09:52:57;100654.66;;;33.40;35.83
67029;BME280;53934;52.142;11.738;2022-08-14T09:55:27;100665.66;;;33.45;36.12
67029;BME280;53934;52.142;11.738;2022-08-14T09:58:07;100654.44;;;33.71;34.72
67029;BME280;53934;52.142;11.738;2022-08-14T10:00:42;100651.00;;;33.64;34.63
67029;BME280;53934;52.142;11.738;2022-08-14T10:03:08;100639.94;;;33.59;34.76
67029;BME280;53934;52.142;11.738;2022-08-14T10:05:35;100637.78;;;33.50;36.28
67029;BME280;53934;52.142;11.738;2022-08-14T10:08:14;100628.97;;;33.06;37.36
67029;BME280;53934;52.142;11.738;2022-08-14T10:10:41;100633.56;;;33.24;36.35
67029;BME280;53934;52.142;11.738;2022-08-14T10:13:21;100638.78;;;33.55;35.75
67029;BME280;53934;52.142;11.738;2022-08-14T10:15:47;100636.78;;;34.15;33.58
67029;BME280;53934;52.142;11.738;2022-08-14T10:18:16;100620.56;;;34.67;32.66
67029;BME280;53934;52.142;11.738;2022-08-14T10:20:51;100613.22;;;34.56;33.11
67029;BME280;53934;52.142;11.738;2022-08-14T10:23:20;100619.69;;;33.73;35.01
67029;BME280;53934;52.142;11.738;2022-08-14T10:25:49;100606.38;;;34.30;37.23
67029;BME280;53934;52.142;11.738;2022-08-14T10:28:17;100599.59;;;34.79;33.37
67029;BME280;53934;52.142;11.738;2022-08-14T10:30:47;100601.66;;;35.00;31.74
67029;BME280;53934;52.142;11.738;2022-08-14T10:33:25;100603.28;;;34.85;32.80
67029;BME280;53934;52.142;11.738;2022-08-14T10:35:54;100599.03;;;34.65;32.42
67029;BME280;53934;52.142;11.738;2022-08-14T10:38:29;100607.19;;;33.54;33.35
67029;BME280;53934;52.142;11.738;2022-08-14T10:41:08;100595.97;;;34.27;32.98
67029;BME280;53934;52.142;11.738;2022-08-14T10:43:38;100581.38;;;35.08;31.89
67029;BME280;53934;52.142;11.738;2022-08-14T10:46:12;100576.78;;;36.03;30.94
67029;BME280;53934;52.142;11.738;2022-08-14T10:48:39;100577.91;;;35.41;30.14
67029;BME280;53934;52.142;11.738;2022-08-14T10:51:06;100571.34;;;34.97;31.30
67029;BME280;53934;52.142;11.738;2022-08-14T10:53:34;100574.00;;;35.20;30.39
67029;BME280;53934;52.142;11.738;2022-08-14T10:56:09;100584.03;;;34.28;31.45
67029;BME280;53934;52.142;11.738;2022-08-14T10:58:37;100569.09;;;34.94;31.25
67029;BME280;53934;52.142;11.738;2022-08-14T11:01:04;100566.88;;;35.47;30.02
67029;BME280;53934;52.142;11.738;2022-08-14T11:03:39;100580.00;;;34.94;31.03
67029;BME280;53934;52.142;11.738;2022-08-14T11:06:16;100575.59;;;34.64;30.47
67029;BME280;53934;52.142;11.738;2022-08-14T11:08:47;100571.19;;;34.75;30.50
67029;BME280;53934;52.142;11.738;2022-08-14T11:11:16;100567.44;;;34.06;32.48
67029;BME280;53934;52.142;11.738;2022-08-14T11:13:43;100569.31;;;34.52;31.75
67029;BME280;53934;52.142;11.738;2022-08-14T11:16:11;100571.25;;;34.17;31.98
67029;BME280;53934;52.142;11.738;2022-08-14T11:18:38;100568.28;;;34.30;30.72
67029;BME280;53934;52.142;11.738;2022-08-14T11:21:13;100569.16;;;34.82;31.36
67029;BME280;53934;52.142;11.738;2022-08-14T11:23:39;100569.09;;;33.84;32.22
67029;BME280;53934;52.142;11.738;2022-08-14T11:26:07;100569.63;;;32.37;32.76
67029;BME280;53934;52.142;11.738;2022-08-14T11:28:37;100569.09;;;33.72;32.80
67029;BME280;53934;52.142;11.738;2022-08-14T11:31:05;100558.81;;;34.96;31.17
67029;BME280;53934;52.142;11.738;2022-08-14T11:33:33;100547.34;;;35.39;30.38
67029;BME280;53934;52.142;11.738;2022-08-14T11:36:04;100543.34;;;36.30;28.25
67029;BME280;53934;52.142;11.738;2022-08-14T11:38:35;100538.94;;;35.90;27.52
67029;BME280;53934;52.142;11.738;2022-08-14T11:41:01;100538.59;;;34.17;29.68
67029;BME280;53934;52.142;11.738;2022-08-14T11:43:29;100531.84;;;34.19;31.45
67029;BME280;53934;52.142;11.738;2022-08-14T11:45:56;100532.88;;;34.42;30.20
67029;BME280;53934;52.142;11.738;2022-08-14T11:48:24;100542.44;;;34.44;29.58
67029;BME280;53934;52.142;11.738;2022-08-14T11:50:52;100533.72;;;34.19;30.61
67029;BME280;53934;52.142;11.738;2022-08-14T11:53:20;100536.69;;;34.06;30.40
67029;BME280;53934;52.142;11.738;2022-08-14T11:55:53;100534.91;;;34.23;30.73
67029;BME280;53934;52.142;11.738;2022-08-14T11:58:24;100535.63;;;34.18;31.84
67029;BME280;53934;52.142;11.738;2022-08-14T12:00:53;100523.09;;;34.29;30.75
67029;BME280;53934;52.142;11.738;2022-08-14T12:03:21;100522.13;;;35.15;30.95
67029;BME280;53934;52.142;11.738;2022-08-14T12:05:47;100517.84;;;35.86;30.08
67029;BME280;53934;52.142;11.738;2022-08-14T12:08:14;100512.41;;;35.86;28.91
67029;BME280;53934;52.142;11.738;2022-08-14T12:10:42;100513.22;;;35.53;29.25
67029;BME280;53934;52.142;11.738;2022-08-14T12:13:11;100496.84;;;36.03;29.07
67029;BME280;53934;52.142;11.738;2022-08-14T12:15:38;100509.34;;;35.99;28.24
67029;BME280;53934;52.142;11.738;2022-08-14T12:18:07;100504.94;;;35.98;28.55
67029;BME280;53934;52.142;11.738;2022-08-14T12:20:35;100503.16;;;35.53;28.33
67029;BME280;53934;52.142;11.738;2022-08-14T12:23:03;100504.81;;;35.54;29.00
67029;BME280;53934;52.142;11.738;2022-08-14T12:25:31;100498.84;;;35.24;31.22
67029;BME280;53934;52.142;11.738;2022-08-14T12:28:01;100490.41;;;35.59;30.88
67029;BME280;53934;52.142;11.738;2022-08-14T12:30:35;100482.75;;;34.94;30.14
67029;BME280;53934;52.142;11.738;2022-08-14T12:33:04;100490.06;;;35.22;30.59
67029;BME280;53934;52.142;11.738;2022-08-14T12:35:38;100472.41;;;35.25;30.43
67029;BME280;53934;52.142;11.738;2022-08-14T12:38:04;100474.72;;;35.83;30.02
67029;BME280;53934;52.142;11.738;2022-08-14T12:40:31;100474.41;;;36.01;29.10
67029;BME280;53934;52.142;11.738;2022-08-14T12:42:59;100466.84;;;35.86;28.63
67029;BME280;53934;52.142;11.738;2022-08-14T12:45:32;100459.13;;;36.00;28.47
67029;BME280;53934;52.142;11.738;2022-08-14T12:48:00;100454.97;;;36.36;27.37
67029;BME280;53934;52.142;11.738;2022-08-14T12:50:39;100450.75;;;36.98;28.80